Time;durP1;ratioP1;P1;durP2;ratioP2;P2;SDS_P1;SDS_P2;PMS_P1;PMS_P2;Temp;Humidity;BMP_temperature;BMP_pressure;BME280_temperature;BME280_humidity;BME280_pressure;Samples;Min_cycle;Max_cycle;Signal;HPM_P1;HPM_P2
2021/12/24 00:02:39;;;;;;;34.30;16.10;;;;;7.00;99774.00;;;;5003178;28;20890;-73
2021/12/24 00:05:26;;;;;;;36.73;15.40;;;;;6.90;99774.00;;;;4998275;28;20313;-72
2021/12/24 00:08:13;;;;;;;34.17;16.33;;;;;7.00;99771.00;;;;5001640;28;20230;-72
2021/12/24 00:11:01;;;;;;;40.37;17.03;;;;;7.00;99754.00;;;;4999485;28;20277;-72
2021/12/24 00:13:51;;;;;;;40.23;17.10;;;;;7.00;99767.00;;;;4999804;28;20233;-73
2021/12/24 00:16:41;;;;;;;38.50;17.17;;;;;7.00;99748.00;;;;5006997;28;20237;-72
2021/12/24 00:19:39;;;;;;;39.60;17.57;;;;;7.20;99779.00;;;;5020065;28;20364;-72
2021/12/24 00:22:57;;;;;;;34.23;17.77;;;;;7.10;99769.00;;;;5009840;28;20235;-72
2021/12/24 00:38:03;;;;;;;43.27;17.93;;;;;7.20;99760.00;;;;4982658;28;20268;-72
2021/12/24 00:40:50;;;;;;;38.80;17.13;;;;;7.30;99757.00;;;;4996731;28;20238;-73
2021/12/24 00:43:36;;;;;;;46.33;18.70;;;;;7.40;99750.00;;;;5006381;28;20605;-72
2021/12/24 00:46:23;;;;;;;42.93;19.27;;;;;7.30;99750.00;;;;5014056;28;20226;-72
2021/12/24 00:49:10;;;;;;;44.57;18.83;;;;;7.40;99740.00;;;;5015171;28;20235;-72
2021/12/24 00:52:07;;;;;;;50.20;20.73;;;;;7.40;99758.00;;;;5009276;28;20229;-73
2021/12/24 00:55:09;;;;;;;52.20;20.60;;;;;7.60;99753.00;;;;4999940;28;20250;-73
2021/12/24 00:57:58;;;;;;;48.70;19.67;;;;;7.60;99730.00;;;;4984351;28;20277;-72
2021/12/24 01:00:44;;;;;;;51.93;19.97;;;;;7.60;99737.00;;;;5009426;28;20747;-72
2021/12/24 01:03:31;;;;;;;54.67;19.33;;;;;7.60;99739.00;;;;5010115;28;20606;-72
2021/12/24 01:06:19;;;;;;;49.17;19.07;;;;;7.50;99721.00;;;;5013396;28;20364;-73
2021/12/24 01:09:05;;;;;;;43.30;18.87;;;;;7.40;99736.00;;;;5009332;28;20637;-73
2021/12/24 01:11:52;;;;;;;47.13;19.70;;;;;7.60;99729.00;;;;4983226;28;20234;-73
2021/12/24 01:14:38;;;;;;;45.33;19.40;;;;;7.50;99719.00;;;;4980670;28;20817;-73
2021/12/24 01:17:34;;;;;;;42.93;18.43;;;;;7.60;99743.00;;;;5001213;28;20591;-73
2021/12/24 01:20:27;;;;;;;39.70;17.13;;;;;7.70;99738.00;;;;4993962;28;20238;-72
2021/12/24 01:23:33;;;;;;;44.13;17.90;;;;;7.60;99736.00;;;;5011561;28;20265;-73
2021/12/24 01:26:31;;;;;;;38.77;17.70;;;;;7.80;99730.00;;;;5007430;28;20269;-73
2021/12/24 01:29:41;;;;;;;41.27;17.17;;;;;7.70;99735.00;;;;4998229;28;20293;-72
2021/12/24 01:38:50;;;;;;;36.33;16.67;;;;;7.80;99717.00;;;;5006723;28;20339;-71
2021/12/24 01:44:40;;;;;;;34.87;15.63;;;;;7.60;99727.00;;;;5010857;28;20233;-72
2021/12/24 01:47:27;;;;;;;32.63;15.47;;;;;7.70;99716.00;;;;5012949;28;20300;-72
2021/12/24 01:50:15;;;;;;;35.53;14.60;;;;;7.80;99712.00;;;;5011230;28;20233;-72
2021/12/24 01:53:03;;;;;;;41.37;15.83;;;;;7.90;99715.00;;;;5012635;28;20322;-72
2021/12/24 01:55:53;;;;;;;32.30;15.03;;;;;7.80;99715.00;;;;5009660;28;20226;-72
2021/12/24 01:58:40;;;;;;;33.50;15.20;;;;;7.90;99704.00;;;;5007608;28;20256;-72
2021/12/24 02:01:27;;;;;;;35.57;15.83;;;;;7.90;99698.00;;;;5018621;28;20304;-72
2021/12/24 02:04:14;;;;;;;38.60;17.20;;;;;7.90;99705.00;;;;5025213;28;20237;-72
2021/12/24 02:07:01;;;;;;;36.37;16.63;;;;;7.90;99696.00;;;;5024160;28;20261;-72
2021/12/24 02:09:47;;;;;;;36.17;15.97;;;;;8.00;99689.00;;;;5000244;28;20241;-73
2021/12/24 02:12:36;;;;;;;34.73;16.07;;;;;7.90;99686.00;;;;5015485;28;20250;-73
2021/12/24 02:15:31;;;;;;;40.07;16.13;;;;;7.80;99692.00;;;;5022953;28;20237;-72
2021/12/24 02:30:35;;;;;;;39.10;17.07;;;;;8.00;99691.00;;;;5014183;28;20365;-71
2021/12/24 02:33:22;;;;;;;38.10;17.20;;;;;8.00;99698.00;;;;5006031;28;20239;-73
2021/12/24 02:36:09;;;;;;;42.07;17.33;;;;;8.00;99691.00;;;;4985256;28;20234;-72
2021/12/24 02:38:57;;;;;;;37.87;17.70;;;;;8.00;99679.00;;;;5004515;28;20253;-73
2021/12/24 02:41:43;;;;;;;45.60;18.87;;;;;8.00;99674.00;;;;4983959;28;20234;-72
2021/12/24 02:44:29;;;;;;;39.50;18.20;;;;;8.00;99681.00;;;;5019160;28;20939;-71
2021/12/24 02:47:38;;;;;;;40.37;18.43;;;;;8.00;99673.00;;;;5014150;28;20238;-71
2021/12/24 02:56:36;;;;;;;47.93;19.23;;;;;8.10;99649.00;;;;5007259;28;20234;-72
2021/12/24 02:59:26;;;;;;;44.60;19.43;;;;;8.10;99647.00;;;;5017036;28;20225;-73
2021/12/24 03:02:12;;;;;;;49.33;20.97;;;;;8.20;99652.00;;;;4988844;28;20258;-72
2021/12/24 03:05:01;;;;;;;48.43;20.27;;;;;8.20;99634.00;;;;5003165;28;20242;-72
2021/12/24 03:07:49;;;;;;;46.90;19.80;;;;;8.20;99653.00;;;;4994185;28;20226;-72
2021/12/24 03:10:36;;;;;;;49.03;19.60;;;;;8.20;99658.00;;;;5017131;28;20258;-73
2021/12/24 03:13:24;;;;;;;43.20;18.77;;;;;8.20;99658.00;;;;5017847;28;20275;-72
2021/12/24 03:16:11;;;;;;;43.77;18.97;;;;;8.20;99660.00;;;;5019836;28;20237;-72
2021/12/24 03:18:58;;;;;;;44.23;19.23;;;;;8.30;99655.00;;;;5002250;28;20534;-73
2021/12/24 03:21:52;;;;;;;38.83;17.33;;;;;8.30;99663.00;;;;4980986;28;20270;-72
2021/12/24 03:24:38;;;;;;;44.57;17.47;;;;;8.40;99631.00;;;;5015961;28;20235;-72
2021/12/24 03:27:24;;;;;;;42.47;18.00;;;;;8.30;99660.00;;;;5008631;28;20319;-72
2021/12/24 03:30:13;;;;;;;37.70;17.60;;;;;8.30;99631.00;;;;5008566;28;20240;-71
2021/12/24 03:32:59;;;;;;;42.97;19.03;;;;;8.40;99647.00;;;;5008621;28;20236;-72
2021/12/24 03:35:46;;;;;;;41.70;17.57;;;;;8.40;99649.00;;;;4995755;28;20230;-72
2021/12/24 03:38:32;;;;;;;39.10;17.93;;;;;8.40;99652.00;;;;5016148;28;20620;-71
2021/12/24 03:41:18;;;;;;;38.70;16.83;;;;;8.40;99647.00;;;;5014514;28;20246;-71
2021/12/24 03:44:07;;;;;;;44.47;17.10;;;;;8.50;99644.00;;;;5014080;28;20273;-74
2021/12/24 03:47:00;;;;;;;39.53;16.37;;;;;8.40;99660.00;;;;5014871;28;20682;-73
2021/12/24 03:49:55;;;;;;;37.10;15.67;;;;;8.40;99649.00;;;;5012847;28;20227;-72
2021/12/24 03:53:03;;;;;;;43.20;16.83;;;;;8.40;99655.00;;;;4992756;28;20235;-72
2021/12/24 03:55:48;;;;;;;40.80;16.90;;;;;8.50;99643.00;;;;5001180;28;20234;-73
2021/12/24 03:58:34;;;;;;;44.10;17.40;;;;;8.50;99643.00;;;;5020116;28;20237;-74
2021/12/24 04:01:21;;;;;;;46.90;18.20;;;;;8.60;99640.00;;;;5008441;28;20288;-73
2021/12/24 04:04:10;;;;;;;53.43;18.27;;;;;8.60;99644.00;;;;4988711;28;20329;-73
2021/12/24 04:06:57;;;;;;;60.20;19.87;;;;;8.60;99647.00;;;;4998564;28;20242;-72
2021/12/24 04:09:51;;;;;;;54.97;19.90;;;;;8.70;99644.00;;;;5008881;28;20227;-72
2021/12/24 04:12:37;;;;;;;58.20;20.13;;;;;8.60;99640.00;;;;5007211;28;20288;-73
2021/12/24 04:15:24;;;;;;;56.53;19.83;;;;;8.70;99648.00;;;;5020793;28;20230;-73
2021/12/24 04:18:15;;;;;;;53.83;20.73;;;;;8.70;99651.00;;;;5011379;28;20239;-73
2021/12/24 04:27:13;;;;;;;54.47;20.13;;;;;8.70;99654.00;;;;4987695;28;20227;-73
2021/12/24 04:30:05;;;;;;;50.10;20.53;;;;;8.70;99654.00;;;;5001116;28;20737;-73
2021/12/24 04:32:58;;;;;;;59.73;21.17;;;;;8.80;99647.00;;;;5000077;28;20231;-73
2021/12/24 04:35:55;;;;;;;71.03;24.50;;;;;8.90;99643.00;;;;4979944;28;20224;-71
2021/12/24 04:51:13;;;;;;;72.03;24.23;;;;;8.70;99653.00;;;;5003290;28;20284;-72
2021/12/24 05:03:27;;;;;;;78.13;24.80;;;;;8.80;99668.00;;;;5011161;28;20294;-74
2021/12/24 05:06:26;;;;;;;78.20;26.43;;;;;8.90;99661.00;;;;5000283;28;20231;-72
2021/12/24 05:09:19;;;;;;;75.50;25.17;;;;;8.90;99664.00;;;;4999739;28;20232;-73
2021/12/24 05:12:09;;;;;;;85.73;26.67;;;;;9.00;99656.00;;;;5009762;28;21045;-73
2021/12/24 05:14:56;;;;;;;70.40;25.47;;;;;9.00;99671.00;;;;4984528;28;20238;-73
2021/12/24 05:18:02;;;;;;;78.77;25.97;;;;;9.00;99660.00;;;;4984588;28;20279;-73
2021/12/24 05:23:52;;;;;;;81.93;26.53;;;;;9.10;99669.00;;;;4992402;28;20377;-73
2021/12/24 05:26:43;;;;;;;75.57;26.20;;;;;9.00;99673.00;;;;5005315;28;20238;-73
2021/12/24 05:29:30;;;;;;;89.53;27.67;;;;;9.00;99665.00;;;;5006738;28;20758;-73
2021/12/24 05:32:17;;;;;;;78.70;25.53;;;;;8.90;99670.00;;;;5002863;28;20241;-72
2021/12/24 05:35:03;;;;;;;79.03;27.40;;;;;9.00;99690.00;;;;5002363;28;20856;-72
2021/12/24 05:37:50;;;;;;;78.50;26.27;;;;;9.00;99678.00;;;;5010178;28;20241;-72
2021/12/24 05:40:36;;;;;;;84.63;27.07;;;;;9.00;99687.00;;;;5012814;28;20254;-73
2021/12/24 05:43:23;;;;;;;76.80;25.53;;;;;8.90;99682.00;;;;5021061;28;20343;-73
2021/12/24 05:46:11;;;;;;;85.60;26.77;;;;;8.90;99680.00;;;;4999908;28;20266;-73
2021/12/24 05:48:58;;;;;;;68.93;25.23;;;;;8.90;99695.00;;;;5012310;28;20242;-73
2021/12/24 05:51:44;;;;;;;79.23;25.87;;;;;9.10;99690.00;;;;5014092;28;20235;-73
2021/12/24 05:54:31;;;;;;;68.13;25.03;;;;;9.00;99706.00;;;;5002627;28;20801;-72
2021/12/24 05:57:18;;;;;;;86.63;27.10;;;;;9.00;99694.00;;;;5014197;28;20307;-73
2021/12/24 06:00:08;;;;;;;78.20;25.37;;;;;8.90;99696.00;;;;5007098;28;20221;-73
2021/12/24 06:02:54;;;;;;;82.23;25.93;;;;;9.00;99695.00;;;;5009523;28;20369;-73
2021/12/24 06:05:41;;;;;;;76.87;26.17;;;;;9.00;99693.00;;;;4986853;28;20234;-73
2021/12/24 06:08:28;;;;;;;75.67;25.53;;;;;9.00;99701.00;;;;5008279;28;20816;-72
2021/12/24 06:11:14;;;;;;;77.60;25.47;;;;;9.00;99694.00;;;;4985727;28;20242;-73
2021/12/24 06:14:09;;;;;;;83.27;25.97;;;;;8.90;99696.00;;;;5002639;28;20231;-73
2021/12/24 06:17:01;;;;;;;77.70;26.37;;;;;9.00;99710.00;;;;5007950;28;20226;-73
2021/12/24 06:19:52;;;;;;;81.23;27.03;;;;;9.00;99699.00;;;;4998251;28;20222;-74
2021/12/24 06:22:38;;;;;;;84.10;26.80;;;;;8.90;99696.00;;;;4986509;28;20247;-73
2021/12/24 06:25:25;;;;;;;71.70;25.63;;;;;8.90;99701.00;;;;5009139;28;20234;-73
2021/12/24 06:28:11;;;;;;;80.77;26.90;;;;;8.90;99694.00;;;;5013574;28;20234;-74
2021/12/24 06:30:58;;;;;;;76.57;27.20;;;;;8.90;99691.00;;;;4999777;28;20286;-73
2021/12/24 06:33:46;;;;;;;82.80;26.73;;;;;8.90;99698.00;;;;4979292;28;20236;-73
2021/12/24 06:36:35;;;;;;;74.43;26.80;;;;;8.90;99705.00;;;;5007240;28;20255;-72
2021/12/24 06:39:22;;;;;;;89.23;27.83;;;;;8.90;99701.00;;;;5004846;28;20275;-74
2021/12/24 06:42:08;;;;;;;90.73;28.13;;;;;9.00;99696.00;;;;5014158;28;20349;-73
2021/12/24 06:44:54;;;;;;;78.30;27.03;;;;;9.00;99708.00;;;;5000699;28;20737;-73
2021/12/24 06:47:41;;;;;;;82.03;25.93;;;;;8.90;99700.00;;;;4986574;28;20295;-73
2021/12/24 06:50:30;;;;;;;76.73;26.33;;;;;9.10;99696.00;;;;5016510;28;20264;-73
2021/12/24 06:53:17;;;;;;;77.20;26.57;;;;;9.00;99700.00;;;;5009829;28;20236;-73
2021/12/24 06:56:04;;;;;;;80.40;27.03;;;;;9.00;99704.00;;;;4989113;28;20270;-73
2021/12/24 06:58:51;;;;;;;83.87;27.43;;;;;9.10;99703.00;;;;4997931;28;20294;-72
2021/12/24 07:01:37;;;;;;;78.23;25.70;;;;;9.00;99707.00;;;;5014096;28;20229;-73
2021/12/24 07:04:24;;;;;;;81.90;25.57;;;;;9.10;99701.00;;;;5014264;28;20237;-72
2021/12/24 07:07:11;;;;;;;79.37;25.97;;;;;9.10;99711.00;;;;4986557;28;20289;-72
2021/12/24 07:09:58;;;;;;;94.57;25.77;;;;;9.20;99715.00;;;;5001870;28;20270;-73
2021/12/24 07:12:44;;;;;;;88.80;26.60;;;;;9.20;99704.00;;;;4980468;28;20286;-73
2021/12/24 07:15:31;;;;;;;89.73;26.03;;;;;9.10;99707.00;;;;5009141;28;20228;-73
2021/12/24 07:18:17;;;;;;;83.10;24.97;;;;;9.10;99712.00;;;;5012749;28;20242;-73
2021/12/24 07:21:04;;;;;;;81.70;24.17;;;;;9.10;99714.00;;;;4984302;28;20235;-73
2021/12/24 07:23:52;;;;;;;77.20;24.63;;;;;9.20;99714.00;;;;5003428;28;20705;-72
2021/12/24 07:26:38;;;;;;;83.80;25.23;;;;;9.10;99703.00;;;;5020591;28;20230;-72
2021/12/24 07:29:24;;;;;;;82.23;24.97;;;;;9.20;99702.00;;;;5010243;28;20248;-72
2021/12/24 07:32:11;;;;;;;75.30;24.40;;;;;9.10;99716.00;;;;5012880;28;25016;-73
2021/12/24 07:34:57;;;;;;;97.27;24.37;;;;;9.10;99718.00;;;;5002285;28;20228;-73
2021/12/24 07:37:43;;;;;;;90.90;24.43;;;;;9.20;99707.00;;;;5009213;28;20231;-73
2021/12/24 07:40:31;;;;;;;83.57;25.47;;;;;9.10;99713.00;;;;5012301;28;20362;-73
2021/12/24 07:43:18;;;;;;;72.40;23.10;;;;;9.20;99711.00;;;;4994208;28;20244;-72
2021/12/24 07:46:04;;;;;;;73.53;23.27;;;;;9.20;99724.00;;;;4992335;28;20267;-73
2021/12/24 07:48:53;;;;;;;78.10;23.37;;;;;9.10;99723.00;;;;4996875;28;20230;-73
2021/12/24 07:52:00;;;;;;;67.20;21.27;;;;;9.00;99738.00;;;;5019033;28;22627;-73
2021/12/24 07:54:50;;;;;;;58.80;21.10;;;;;9.00;99736.00;;;;5012078;28;20863;-73
2021/12/24 07:57:58;;;;;;;66.47;20.53;;;;;9.00;99733.00;;;;5001230;28;20263;-73
2021/12/24 08:00:45;;;;;;;64.87;21.60;;;;;9.10;99738.00;;;;4999280;28;20229;-72
2021/12/24 08:03:32;;;;;;;51.17;19.53;;;;;9.10;99735.00;;;;5005445;28;20265;-72
2021/12/24 08:06:18;;;;;;;55.20;20.00;;;;;9.00;99736.00;;;;4999647;28;20719;-72
2021/12/24 08:09:06;;;;;;;50.83;20.07;;;;;9.10;99744.00;;;;5009601;28;20234;-72
2021/12/24 08:11:52;;;;;;;54.77;18.83;;;;;9.10;99734.00;;;;5002701;28;20307;-72
2021/12/24 08:14:40;;;;;;;56.10;18.97;;;;;9.10;99734.00;;;;4997848;28;20262;-73
2021/12/24 08:17:26;;;;;;;51.57;16.37;;;;;9.10;99732.00;;;;4994605;28;20624;-73
2021/12/24 08:20:14;;;;;;;49.23;17.30;;;;;9.00;99727.00;;;;4992870;28;20239;-73
2021/12/24 08:23:01;;;;;;;39.60;16.47;;;;;9.00;99734.00;;;;5004514;28;20245;-73
2021/12/24 08:25:47;;;;;;;45.73;15.83;;;;;9.10;99738.00;;;;5013038;28;20293;-72
2021/12/24 08:28:34;;;;;;;50.80;15.53;;;;;9.20;99727.00;;;;5011293;28;20274;-73
2021/12/24 08:31:22;;;;;;;46.83;15.43;;;;;9.10;99738.00;;;;5008197;28;20895;-73
2021/12/24 08:34:10;;;;;;;54.90;16.13;;;;;9.10;99735.00;;;;4988638;28;20307;-73
2021/12/24 08:36:58;;;;;;;46.80;14.90;;;;;9.20;99732.00;;;;5002017;28;20232;-74
2021/12/24 08:39:44;;;;;;;48.60;15.27;;;;;9.00;99737.00;;;;5007074;28;20239;-74
2021/12/24 08:42:30;;;;;;;48.23;14.53;;;;;9.20;99739.00;;;;5011026;28;20263;-72
2021/12/24 08:45:17;;;;;;;41.40;14.10;;;;;9.20;99737.00;;;;5007311;28;20227;-71
2021/12/24 08:48:04;;;;;;;38.37;14.27;;;;;9.20;99725.00;;;;5007365;28;20230;-71
2021/12/24 08:50:51;;;;;;;37.47;13.60;;;;;9.20;99726.00;;;;5001968;28;20231;-70
2021/12/24 08:53:38;;;;;;;36.97;13.33;;;;;9.30;99717.00;;;;4975536;28;20240;-69
2021/12/24 08:56:24;;;;;;;33.83;12.63;;;;;9.20;99718.00;;;;5006705;28;20236;-72
2021/12/24 08:59:11;;;;;;;33.93;13.37;;;;;9.00;99720.00;;;;5014315;28;20603;-73
2021/12/24 09:01:58;;;;;;;30.27;12.47;;;;;9.10;99715.00;;;;5013361;28;20235;-74
2021/12/24 09:04:46;;;;;;;31.33;11.07;;;;;9.20;99712.00;;;;4977467;28;20259;-72
2021/12/24 09:07:33;;;;;;;38.70;11.73;;;;;9.10;99709.00;;;;4984479;28;20239;-73
2021/12/24 09:10:19;;;;;;;36.00;11.13;;;;;9.20;99716.00;;;;5001408;28;20231;-74
2021/12/24 09:13:07;;;;;;;32.57;10.93;;;;;9.10;99722.00;;;;5011860;28;20262;-74
2021/12/24 09:15:53;;;;;;;29.37;12.17;;;;;9.10;99718.00;;;;4986412;28;20355;-72
2021/12/24 09:18:42;;;;;;;34.70;11.77;;;;;9.20;99713.00;;;;4998660;28;20232;-72
2021/12/24 09:21:30;;;;;;;34.77;11.67;;;;;9.10;99708.00;;;;4990467;28;20249;-72
2021/12/24 09:24:18;;;;;;;35.27;11.07;;;;;9.10;99706.00;;;;4996124;28;20262;-74
2021/12/24 09:27:05;;;;;;;30.03;10.50;;;;;9.10;99705.00;;;;4993147;28;20313;-73
2021/12/24 09:29:52;;;;;;;37.23;12.53;;;;;9.10;99704.00;;;;4987584;28;20311;-74
2021/12/24 09:32:38;;;;;;;34.67;11.90;;;;;9.00;99707.00;;;;4998241;28;20254;-75
2021/12/24 09:35:26;;;;;;;26.13;11.63;;;;;9.00;99714.00;;;;4993435;28;20297;-75
2021/12/24 09:38:14;;;;;;;41.10;12.50;;;;;9.00;99717.00;;;;5003571;28;20355;-74
2021/12/24 09:41:00;;;;;;;27.20;10.17;;;;;9.10;99712.00;;;;5001247;28;20628;-73
2021/12/24 09:43:46;;;;;;;31.33;11.40;;;;;9.10;99713.00;;;;4999560;28;20719;-73
2021/12/24 09:46:33;;;;;;;37.90;11.43;;;;;9.10;99707.00;;;;4987387;28;20379;-73
2021/12/24 09:49:20;;;;;;;29.83;10.53;;;;;9.00;99706.00;;;;5005832;28;20721;-72
2021/12/24 09:52:07;;;;;;;34.37;11.23;;;;;9.10;99707.00;;;;5013543;28;20374;-74
2021/12/24 09:54:54;;;;;;;40.93;16.43;;;;;9.10;99691.00;;;;5002728;28;20651;-73
2021/12/24 09:57:42;;;;;;;35.63;13.97;;;;;9.10;99705.00;;;;4991704;28;20232;-73
2021/12/24 10:00:29;;;;;;;39.30;11.97;;;;;9.10;99711.00;;;;5021209;28;20731;-74
2021/12/24 10:03:28;;;;;;;34.00;11.57;;;;;9.10;99705.00;;;;5013484;28;20236;-73
2021/12/24 10:06:16;;;;;;;35.33;11.70;;;;;9.10;99707.00;;;;5001941;28;20227;-73
2021/12/24 10:09:06;;;;;;;33.20;11.90;;;;;9.20;99701.00;;;;5000104;28;20413;-72
2021/12/24 10:11:58;;;;;;;34.47;13.17;;;;;8.90;99700.00;;;;5002442;28;20239;-73
2021/12/24 10:14:50;;;;;;;33.50;12.57;;;;;9.00;99703.00;;;;5000207;28;20231;-73
2021/12/24 10:17:38;;;;;;;47.60;13.43;;;;;9.10;99709.00;;;;4994841;28;20231;-73
2021/12/24 10:20:24;;;;;;;31.30;11.23;;;;;9.10;99713.00;;;;4998036;28;20299;-73
2021/12/24 10:23:12;;;;;;;39.30;12.77;;;;;9.00;99717.00;;;;5005774;28;20317;-74
2021/12/24 10:26:11;;;;;;;31.47;13.13;;;;;9.00;99717.00;;;;5003832;28;20236;-72
2021/12/24 10:29:04;;;;;;;30.90;12.53;;;;;9.10;99703.00;;;;5003335;28;20583;-72
2021/12/24 10:31:53;;;;;;;37.43;11.73;;;;;9.10;99696.00;;;;4990539;28;20288;-73
2021/12/24 10:34:41;;;;;;;31.40;11.53;;;;;9.10;99688.00;;;;4989821;28;20394;-72
2021/12/24 10:37:30;;;;;;;26.67;11.83;;;;;9.10;99698.00;;;;5011992;28;20595;-73
2021/12/24 10:40:17;;;;;;;34.47;12.00;;;;;9.20;99696.00;;;;5017806;28;21022;-71
2021/12/24 10:43:03;;;;;;;32.63;11.80;;;;;9.20;99696.00;;;;5014474;28;20240;-72
2021/12/24 10:46:08;;;;;;;34.00;11.97;;;;;9.20;99691.00;;;;5021003;28;20235;-73
2021/12/24 10:49:03;;;;;;;28.27;10.93;;;;;9.30;99699.00;;;;4997018;28;20688;-72
2021/12/24 10:51:58;;;;;;;32.67;11.33;;;;;9.30;99705.00;;;;5005506;28;20245;-73
2021/12/24 10:54:52;;;;;;;30.73;10.57;;;;;9.20;99692.00;;;;4990382;28;20590;-72
2021/12/24 10:57:41;;;;;;;31.10;10.97;;;;;9.20;99697.00;;;;4995295;28;20334;-71
2021/12/24 11:00:34;;;;;;;30.80;10.17;;;;;9.20;99688.00;;;;4992038;28;20291;-72
2021/12/24 11:03:25;;;;;;;29.37;11.03;;;;;9.20;99686.00;;;;4982929;28;20243;-73
2021/12/24 11:06:13;;;;;;;26.00;9.80;;;;;9.20;99685.00;;;;4986723;28;20324;-68
2021/12/24 11:08:59;;;;;;;33.23;10.53;;;;;9.10;99689.00;;;;4995883;28;20259;-73
2021/12/24 11:11:47;;;;;;;26.37;10.57;;;;;9.40;99691.00;;;;4999321;28;20234;-73
2021/12/24 11:14:34;;;;;;;26.77;9.97;;;;;9.20;99696.00;;;;5002339;28;20230;-72
2021/12/24 11:17:39;;;;;;;29.73;10.87;;;;;9.30;99698.00;;;;5000331;28;20241;-72
2021/12/24 11:20:28;;;;;;;30.53;10.13;;;;;9.10;99693.00;;;;4997593;28;20234;-72
2021/12/24 11:23:16;;;;;;;27.87;9.77;;;;;9.20;99701.00;;;;5008326;28;20229;-74
2021/12/24 11:26:06;;;;;;;22.30;9.87;;;;;9.20;99694.00;;;;4997916;28;20606;-75
2021/12/24 11:28:52;;;;;;;29.23;10.83;;;;;9.20;99702.00;;;;5003778;28;20845;-74
2021/12/24 11:31:39;;;;;;;29.87;10.70;;;;;9.10;99702.00;;;;5005470;28;20269;-72
2021/12/24 11:34:25;;;;;;;34.87;11.60;;;;;9.10;99690.00;;;;4998087;28;20224;-74
2021/12/24 11:37:13;;;;;;;36.13;11.27;;;;;9.10;99704.00;;;;4995625;28;20399;-73
2021/12/24 11:40:02;;;;;;;33.03;12.43;;;;;9.20;99698.00;;;;4998476;28;20346;-72
2021/12/24 11:42:52;;;;;;;33.23;11.93;;;;;9.20;99690.00;;;;5004495;28;20239;-72
2021/12/24 11:45:38;;;;;;;40.83;13.23;;;;;9.30;99701.00;;;;5012525;28;20240;-72
2021/12/24 11:48:27;;;;;;;36.80;12.70;;;;;9.20;99699.00;;;;4998688;28;20228;-72
2021/12/24 11:51:16;;;;;;;34.50;12.93;;;;;9.10;99694.00;;;;4989460;28;20228;-72
2021/12/24 11:54:06;;;;;;;35.47;13.70;;;;;9.10;99687.00;;;;4989604;28;20220;-72
2021/12/24 11:56:54;;;;;;;49.00;21.20;;;;;9.20;99694.00;;;;4995266;28;20228;-72
2021/12/24 11:59:41;;;;;;;42.63;13.47;;;;;9.20;99689.00;;;;5005556;28;20925;-72
2021/12/24 12:02:43;;;;;;;35.13;13.40;;;;;9.30;99695.00;;;;5013373;28;20239;-72
2021/12/24 12:05:33;;;;;;;39.47;13.60;;;;;9.40;99682.00;;;;5009070;28;21255;-73
2021/12/24 12:08:40;;;;;;;39.83;13.90;;;;;9.30;99681.00;;;;5013385;28;20293;-75
2021/12/24 12:11:29;;;;;;;37.80;13.17;;;;;9.40;99678.00;;;;5014229;28;20301;-72
2021/12/24 12:14:26;;;;;;;38.23;13.80;;;;;9.40;99676.00;;;;5017209;28;20230;-73
2021/12/24 12:17:24;;;;;;;34.93;13.53;;;;;9.30;99676.00;;;;4995106;28;21034;-71
2021/12/24 12:20:16;;;;;;;31.97;11.73;;;;;9.50;99678.00;;;;5004716;28;20706;-72
2021/12/24 12:23:03;;;;;;;35.00;13.47;;;;;9.40;99666.00;;;;5003485;28;20400;-72
2021/12/24 12:25:49;;;;;;;35.37;11.47;;;;;9.40;99673.00;;;;5007892;28;20698;-74
2021/12/24 12:28:37;;;;;;;40.47;12.73;;;;;9.40;99669.00;;;;5012588;28;20291;-73
2021/12/24 12:31:25;;;;;;;33.50;12.23;;;;;9.50;99664.00;;;;4997537;28;20236;-74
2021/12/24 12:34:45;;;;;;;30.93;11.63;;;;;9.50;99665.00;;;;4981895;28;21047;-72
2021/12/24 12:37:41;;;;;;;31.37;11.77;;;;;9.40;99675.00;;;;4990238;28;20233;-73
2021/12/24 12:40:32;;;;;;;32.40;12.20;;;;;9.40;99664.00;;;;4993587;28;20621;-73
2021/12/24 12:43:21;;;;;;;34.67;12.03;;;;;9.40;99659.00;;;;4996008;28;20223;-73
2021/12/24 12:46:19;;;;;;;31.87;12.53;;;;;9.40;99669.00;;;;4986759;28;20229;-73
2021/12/24 12:49:08;;;;;;;27.07;11.77;;;;;9.20;99665.00;;;;4983254;28;20714;-79
2021/12/24 12:51:56;;;;;;;30.03;12.80;;;;;9.30;99666.00;;;;4993331;28;20221;-74
2021/12/24 12:54:45;;;;;;;39.17;13.27;;;;;9.30;99674.00;;;;4996427;28;20244;-72
2021/12/24 12:57:33;;;;;;;30.23;12.43;;;;;9.30;99673.00;;;;4989032;28;20621;-75
2021/12/24 13:00:27;;;;;;;31.97;11.83;;;;;9.30;99660.00;;;;4986880;28;20230;-75
2021/12/24 13:03:15;;;;;;;31.80;11.10;;;;;9.40;99656.00;;;;4993693;28;20311;-73
2021/12/24 13:06:05;;;;;;;28.70;11.60;;;;;9.40;99644.00;;;;4994291;28;20243;-75
2021/12/24 13:08:52;;;;;;;34.10;11.60;;;;;9.50;99658.00;;;;4998104;28;20237;-72
2021/12/24 13:11:40;;;;;;;32.27;12.07;;;;;9.40;99655.00;;;;4995815;28;20310;-71
2021/12/24 13:14:29;;;;;;;33.27;11.90;;;;;9.40;99668.00;;;;4997732;28;20235;-70
2021/12/24 13:17:20;;;;;;;30.00;11.47;;;;;9.40;99657.00;;;;5002675;28;20275;-73
2021/12/24 13:20:15;;;;;;;34.03;11.80;;;;;9.50;99662.00;;;;4998863;28;20259;-74
2021/12/24 13:23:02;;;;;;;23.77;11.03;;;;;9.40;99655.00;;;;5000768;28;20238;-74
2021/12/24 13:25:52;;;;;;;33.37;11.33;;;;;9.50;99670.00;;;;4990642;28;20770;-72
2021/12/24 13:28:54;;;;;;;33.93;10.90;;;;;9.40;99667.00;;;;4999939;28;20230;-73
2021/12/24 13:31:42;;;;;;;31.80;11.40;;;;;9.40;99670.00;;;;5002348;28;20234;-73
2021/12/24 13:34:29;;;;;;;31.77;11.97;;;;;9.50;99669.00;;;;4999171;28;20623;-73
2021/12/24 13:37:17;;;;;;;29.13;11.57;;;;;9.40;99667.00;;;;4993805;28;20249;-72
2021/12/24 13:40:09;;;;;;;46.07;12.30;;;;;9.50;99653.00;;;;4984190;28;20248;-72
2021/12/24 13:42:58;;;;;;;31.67;12.60;;;;;9.40;99667.00;;;;4991431;28;20911;-74
2021/12/24 13:45:48;;;;;;;38.47;12.63;;;;;9.40;99668.00;;;;4987791;28;20725;-74
2021/12/24 13:48:47;;;;;;;33.43;15.73;;;;;9.40;99662.00;;;;5002936;28;20232;-70
2021/12/24 13:54:38;;;;;;;38.50;13.20;;;;;9.50;99645.00;;;;4999741;28;20228;-72
2021/12/24 13:57:25;;;;;;;36.33;12.47;;;;;9.50;99675.00;;;;4985114;28;20243;-70
2021/12/24 14:00:13;;;;;;;35.67;13.57;;;;;9.50;99672.00;;;;5005198;28;20302;-71
2021/12/24 14:03:01;;;;;;;41.27;13.10;;;;;9.60;99671.00;;;;5013699;28;20257;-70
2021/12/24 14:05:50;;;;;;;35.77;13.77;;;;;9.50;99677.00;;;;4985228;28;20748;-71
2021/12/24 14:08:37;;;;;;;32.17;13.13;;;;;9.30;99673.00;;;;4993747;28;20802;-70
2021/12/24 14:11:35;;;;;;;36.33;14.20;;;;;9.40;99672.00;;;;4991806;28;20250;-73
2021/12/24 14:14:26;;;;;;;41.77;14.73;;;;;9.40;99670.00;;;;4985264;28;20222;-73
2021/12/24 14:17:49;;;;;;;43.20;16.03;;;;;9.30;99684.00;;;;4991660;28;20312;-69
2021/12/24 14:21:00;;;;;;;41.57;15.30;;;;;9.20;99674.00;;;;4999882;28;20998;-72
2021/12/24 14:24:04;;;;;;;42.10;15.43;;;;;9.30;99681.00;;;;4992554;28;20774;-74
2021/12/24 14:26:56;;;;;;;48.33;15.57;;;;;9.30;99672.00;;;;4993023;28;20236;-68
2021/12/24 14:29:44;;;;;;;48.13;15.87;;;;;9.30;99671.00;;;;4981228;28;20238;-73
2021/12/24 14:32:32;;;;;;;37.97;14.87;;;;;9.20;99681.00;;;;4997728;28;20243;-70
2021/12/24 14:35:22;;;;;;;41.40;15.27;;;;;9.20;99672.00;;;;4995066;28;20256;-73
2021/12/24 14:38:15;;;;;;;39.80;16.03;;;;;9.30;99691.00;;;;4974405;28;20231;-70
2021/12/24 14:41:02;;;;;;;44.03;16.90;;;;;9.30;99683.00;;;;4985746;28;20291;-70
2021/12/24 14:43:50;;;;;;;45.27;16.40;;;;;9.30;99686.00;;;;4987906;28;20710;-71
2021/12/24 14:46:36;;;;;;;45.33;18.43;;;;;9.30;99686.00;;;;4997444;28;20382;-72
2021/12/24 14:49:31;;;;;;;42.80;15.40;;;;;9.30;99699.00;;;;4998083;28;20771;-71
2021/12/24 14:52:20;;;;;;;52.30;17.87;;;;;9.30;99683.00;;;;4999925;28;20330;-71
2021/12/24 14:55:19;;;;;;;52.80;16.07;;;;;9.20;99684.00;;;;5000843;28;20237;-72
2021/12/24 14:58:06;;;;;;;46.23;17.43;;;;;9.20;99687.00;;;;4997408;28;20313;-71
2021/12/24 15:00:54;;;;;;;44.67;17.33;;;;;9.20;99691.00;;;;4995273;28;20323;-71
2021/12/24 15:03:45;;;;;;;53.17;18.37;;;;;9.10;99686.00;;;;4994538;28;20287;-72
2021/12/24 15:06:34;;;;;;;42.77;17.17;;;;;9.10;99673.00;;;;4979952;28;20245;-70
2021/12/24 15:09:28;;;;;;;52.50;18.40;;;;;9.30;99685.00;;;;4990351;28;20297;-71
2021/12/24 15:12:21;;;;;;;51.93;19.03;;;;;9.10;99695.00;;;;4999206;28;20277;-71
2021/12/24 15:15:08;;;;;;;46.70;16.80;;;;;9.20;99686.00;;;;4998048;28;20236;-70